sensor_id;sensor_type;location;lat;lon;timestamp;P1;durP1;ratioP1;P2;durP2;ratioP2
15293;SDS011;7748;52.474;13.454;2023-02-28T00:01:11;5.73;;;4.07;;
15293;SDS011;7748;52.474;13.454;2023-02-28T00:03:40;9.23;;;3.30;;
15293;SDS011;7748;52.474;13.454;2023-02-28T00:06:08;4.37;;;3.03;;
15293;SDS011;7748;52.474;13.454;2023-02-28T00:08:37;6.47;;;3.70;;
15293;SDS011;7748;52.474;13.454;2023-02-28T00:11:06;4.93;;;3.60;;
15293;SDS011;7748;52.474;13.454;2023-02-28T00:13:40;5.23;;;3.43;;
15293;SDS011;7748;52.474;13.454;2023-02-28T00:19:01;5.93;;;3.07;;
15293;SDS011;7748;52.474;13.454;2023-02-28T00:21:28;6.07;;;3.67;;
15293;SDS011;7748;52.474;13.454;2023-02-28T00:23:57;4.43;;;3.40;;
15293;SDS011;7748;52.474;13.454;2023-02-28T00:26:24;6.03;;;3.03;;
15293;SDS011;7748;52.474;13.454;2023-02-28T00:28:54;5.43;;;3.37;;
15293;SDS011;7748;52.474;13.454;2023-02-28T00:31:22;7.60;;;4.30;;
15293;SDS011;7748;52.474;13.454;2023-02-28T00:33:50;8.07;;;3.70;;
15293;SDS011;7748;52.474;13.454;2023-02-28T00:36:18;5.63;;;3.63;;
15293;SDS011;7748;52.474;13.454;2023-02-28T00:38:45;4.93;;;3.73;;
15293;SDS011;7748;52.474;13.454;2023-02-28T00:41:14;6.93;;;3.73;;
15293;SDS011;7748;52.474;13.454;2023-02-28T00:43:42;4.30;;;3.30;;
15293;SDS011;7748;52.474;13.454;2023-02-28T00:46:11;5.17;;;3.57;;
15293;SDS011;7748;52.474;13.454;2023-02-28T00:48:39;5.80;;;4.00;;
15293;SDS011;7748;52.474;13.454;2023-02-28T00:51:07;6.73;;;3.73;;
15293;SDS011;7748;52.474;13.454;2023-02-28T00:53:35;8.10;;;3.83;;
15293;SDS011;7748;52.474;13.454;2023-02-28T00:56:03;7.07;;;4.43;;
15293;SDS011;7748;52.474;13.454;2023-02-28T00:58:31;5.53;;;4.30;;
15293;SDS011;7748;52.474;13.454;2023-02-28T01:00:59;6.27;;;3.97;;
15293;SDS011;7748;52.474;13.454;2023-02-28T01:03:28;8.47;;;4.73;;
15293;SDS011;7748;52.474;13.454;2023-02-28T01:05:56;7.47;;;4.20;;
15293;SDS011;7748;52.474;13.454;2023-02-28T01:08:24;6.70;;;3.67;;
15293;SDS011;7748;52.474;13.454;2023-02-28T01:10:53;6.40;;;4.30;;
15293;SDS011;7748;52.474;13.454;2023-02-28T01:13:22;6.40;;;4.27;;
15293;SDS011;7748;52.474;13.454;2023-02-28T01:15:50;5.63;;;4.33;;
15293;SDS011;7748;52.474;13.454;2023-02-28T01:18:22;8.97;;;4.50;;
15293;SDS011;7748;52.474;13.454;2023-02-28T01:20:52;6.97;;;4.03;;
15293;SDS011;7748;52.474;13.454;2023-02-28T01:23:20;6.20;;;4.10;;
15293;SDS011;7748;52.474;13.454;2023-02-28T01:25:49;4.93;;;3.77;;
15293;SDS011;7748;52.474;13.454;2023-02-28T01:28:17;8.63;;;4.47;;
15293;SDS011;7748;52.474;13.454;2023-02-28T01:30:49;5.57;;;4.27;;
15293;SDS011;7748;52.474;13.454;2023-02-28T01:33:18;8.73;;;5.00;;
15293;SDS011;7748;52.474;13.454;2023-02-28T01:35:46;8.97;;;4.17;;
15293;SDS011;7748;52.474;13.454;2023-02-28T01:38:15;7.30;;;4.10;;
15293;SDS011;7748;52.474;13.454;2023-02-28T01:40:48;7.40;;;4.53;;
15293;SDS011;7748;52.474;13.454;2023-02-28T01:43:20;7.93;;;3.90;;
15293;SDS011;7748;52.474;13.454;2023-02-28T01:45:50;7.07;;;4.32;;
15293;SDS011;7748;52.474;13.454;2023-02-28T01:48:18;8.67;;;4.50;;
15293;SDS011;7748;52.474;13.454;2023-02-28T01:50:48;7.40;;;4.20;;
15293;SDS011;7748;52.474;13.454;2023-02-28T01:53:19;7.23;;;3.73;;
15293;SDS011;7748;52.474;13.454;2023-02-28T01:55:54;5.90;;;4.70;;
15293;SDS011;7748;52.474;13.454;2023-02-28T01:58:22;8.57;;;4.73;;
15293;SDS011;7748;52.474;13.454;2023-02-28T02:00:50;8.43;;;4.28;;
15293;SDS011;7748;52.474;13.454;2023-02-28T02:03:19;5.70;;;4.30;;
15293;SDS011;7748;52.474;13.454;2023-02-28T02:05:48;9.25;;;4.20;;
15293;SDS011;7748;52.474;13.454;2023-02-28T02:08:17;10.10;;;4.40;;
15293;SDS011;7748;52.474;13.454;2023-02-28T02:10:50;7.82;;;4.15;;
15293;SDS011;7748;52.474;13.454;2023-02-28T02:13:24;7.60;;;4.68;;
15293;SDS011;7748;52.474;13.454;2023-02-28T02:16:04;9.80;;;4.78;;
15293;SDS011;7748;52.474;13.454;2023-02-28T02:18:45;5.65;;;4.30;;
15293;SDS011;7748;52.474;13.454;2023-02-28T02:24:35;5.57;;;3.63;;
15293;SDS011;7748;52.474;13.454;2023-02-28T02:33:22;6.50;;;4.53;;
15293;SDS011;7748;52.474;13.454;2023-02-28T02:36:11;9.63;;;4.43;;
15293;SDS011;7748;52.474;13.454;2023-02-28T02:38:43;8.73;;;4.97;;
15293;SDS011;7748;52.474;13.454;2023-02-28T02:41:19;5.28;;;4.18;;
15293;SDS011;7748;52.474;13.454;2023-02-28T02:43:54;7.40;;;4.10;;
15293;SDS011;7748;52.474;13.454;2023-02-28T02:46:31;8.25;;;4.45;;
15293;SDS011;7748;52.474;13.454;2023-02-28T02:49:02;8.27;;;4.75;;
15293;SDS011;7748;52.474;13.454;2023-02-28T02:51:35;5.53;;;4.10;;
15293;SDS011;7748;52.474;13.454;2023-02-28T02:54:06;12.88;;;5.10;;
15293;SDS011;7748;52.474;13.454;2023-02-28T02:56:36;6.97;;;4.18;;
15293;SDS011;7748;52.474;13.454;2023-02-28T02:59:09;10.15;;;4.50;;
15293;SDS011;7748;52.474;13.454;2023-02-28T03:01:40;6.85;;;4.65;;
15293;SDS011;7748;52.474;13.454;2023-02-28T03:04:09;6.25;;;4.80;;
15293;SDS011;7748;52.474;13.454;2023-02-28T03:06:42;6.72;;;4.53;;
15293;SDS011;7748;52.474;13.454;2023-02-28T03:09:09;6.72;;;4.38;;
15293;SDS011;7748;52.474;13.454;2023-02-28T03:11:37;7.82;;;4.55;;
15293;SDS011;7748;52.474;13.454;2023-02-28T03:14:09;8.38;;;4.82;;
15293;SDS011;7748;52.474;13.454;2023-02-28T03:19:54;9.07;;;4.32;;
15293;SDS011;7748;52.474;13.454;2023-02-28T03:22:42;5.45;;;4.07;;
15293;SDS011;7748;52.474;13.454;2023-02-28T03:25:20;7.03;;;4.55;;
15293;SDS011;7748;52.474;13.454;2023-02-28T03:28:00;7.63;;;4.43;;
15293;SDS011;7748;52.474;13.454;2023-02-28T03:30:36;8.88;;;4.63;;
15293;SDS011;7748;52.474;13.454;2023-02-28T03:33:10;7.20;;;4.85;;
15293;SDS011;7748;52.474;13.454;2023-02-28T03:35:43;8.48;;;4.57;;
15293;SDS011;7748;52.474;13.454;2023-02-28T03:38:19;10.90;;;4.60;;
15293;SDS011;7748;52.474;13.454;2023-02-28T03:40:53;8.45;;;4.93;;
15293;SDS011;7748;52.474;13.454;2023-02-28T03:43:26;8.10;;;4.45;;
15293;SDS011;7748;52.474;13.454;2023-02-28T03:45:58;7.32;;;4.65;;
15293;SDS011;7748;52.474;13.454;2023-02-28T03:48:32;7.82;;;5.18;;
15293;SDS011;7748;52.474;13.454;2023-02-28T03:51:05;6.55;;;4.70;;
15293;SDS011;7748;52.474;13.454;2023-02-28T03:53:39;6.25;;;4.65;;
15293;SDS011;7748;52.474;13.454;2023-02-28T03:56:12;8.27;;;4.70;;
15293;SDS011;7748;52.474;13.454;2023-02-28T03:58:47;8.57;;;4.70;;
15293;SDS011;7748;52.474;13.454;2023-02-28T04:01:19;8.52;;;5.30;;
15293;SDS011;7748;52.474;13.454;2023-02-28T04:03:51;6.88;;;4.53;;
15293;SDS011;7748;52.474;13.454;2023-02-28T04:06:20;9.10;;;5.22;;
15293;SDS011;7748;52.474;13.454;2023-02-28T04:08:51;8.48;;;4.70;;
15293;SDS011;7748;52.474;13.454;2023-02-28T04:11:21;10.10;;;5.22;;
15293;SDS011;7748;52.474;13.454;2023-02-28T04:13:51;8.75;;;5.10;;
15293;SDS011;7748;52.474;13.454;2023-02-28T04:16:19;9.80;;;5.65;;
15293;SDS011;7748;52.474;13.454;2023-02-28T04:19:00;10.48;;;5.05;;
15293;SDS011;7748;52.474;13.454;2023-02-28T04:21:29;12.00;;;5.57;;
15293;SDS011;7748;52.474;13.454;2023-02-28T04:24:00;6.93;;;4.78;;
15293;SDS011;7748;52.474;13.454;2023-02-28T04:26:28;11.23;;;5.20;;
15293;SDS011;7748;52.474;13.454;2023-02-28T04:28:57;6.70;;;4.68;;
15293;SDS011;7748;52.474;13.454;2023-02-28T04:31:25;10.80;;;6.18;;
15293;SDS011;7748;52.474;13.454;2023-02-28T04:33:53;9.00;;;5.78;;
15293;SDS011;7748;52.474;13.454;2023-02-28T04:36:21;9.38;;;5.40;;
15293;SDS011;7748;52.474;13.454;2023-02-28T04:38:49;9.05;;;5.93;;
15293;SDS011;7748;52.474;13.454;2023-02-28T04:41:19;9.23;;;5.57;;
15293;SDS011;7748;52.474;13.454;2023-02-28T04:43:48;9.85;;;5.03;;
15293;SDS011;7748;52.474;13.454;2023-02-28T04:46:18;7.85;;;4.82;;
15293;SDS011;7748;52.474;13.454;2023-02-28T04:48:46;10.07;;;5.00;;
15293;SDS011;7748;52.474;13.454;2023-02-28T04:51:16;9.63;;;5.45;;
15293;SDS011;7748;52.474;13.454;2023-02-28T04:53:46;10.95;;;5.85;;
15293;SDS011;7748;52.474;13.454;2023-02-28T04:56:15;8.75;;;6.10;;
15293;SDS011;7748;52.474;13.454;2023-02-28T04:58:45;10.60;;;5.63;;
15293;SDS011;7748;52.474;13.454;2023-02-28T05:01:21;9.80;;;5.57;;
15293;SDS011;7748;52.474;13.454;2023-02-28T05:03:51;11.10;;;6.00;;
15293;SDS011;7748;52.474;13.454;2023-02-28T05:06:21;13.38;;;8.98;;
15293;SDS011;7748;52.474;13.454;2023-02-28T05:08:51;11.25;;;6.90;;
15293;SDS011;7748;52.474;13.454;2023-02-28T05:11:19;12.68;;;6.38;;
15293;SDS011;7748;52.474;13.454;2023-02-28T05:13:51;10.77;;;6.68;;
15293;SDS011;7748;52.474;13.454;2023-02-28T05:16:19;13.45;;;7.80;;
15293;SDS011;7748;52.474;13.454;2023-02-28T05:18:47;10.85;;;6.07;;
15293;SDS011;7748;52.474;13.454;2023-02-28T05:21:21;10.15;;;6.63;;
15293;SDS011;7748;52.474;13.454;2023-02-28T05:23:52;13.90;;;6.43;;
15293;SDS011;7748;52.474;13.454;2023-02-28T05:26:20;12.65;;;7.28;;
15293;SDS011;7748;52.474;13.454;2023-02-28T05:28:50;12.77;;;6.63;;
15293;SDS011;7748;52.474;13.454;2023-02-28T05:31:18;12.23;;;7.68;;
15293;SDS011;7748;52.474;13.454;2023-02-28T05:33:46;10.07;;;6.65;;
15293;SDS011;7748;52.474;13.454;2023-02-28T05:36:14;11.43;;;7.10;;
15293;SDS011;7748;52.474;13.454;2023-02-28T05:38:42;10.35;;;7.47;;
15293;SDS011;7748;52.474;13.454;2023-02-28T05:41:10;11.23;;;7.03;;
15293;SDS011;7748;52.474;13.454;2023-02-28T05:43:38;9.52;;;6.60;;
15293;SDS011;7748;52.474;13.454;2023-02-28T05:46:08;10.00;;;5.93;;
15293;SDS011;7748;52.474;13.454;2023-02-28T05:48:38;14.55;;;7.45;;
15293;SDS011;7748;52.474;13.454;2023-02-28T05:51:07;12.35;;;7.00;;
15293;SDS011;7748;52.474;13.454;2023-02-28T05:53:35;11.52;;;7.32;;
15293;SDS011;7748;52.474;13.454;2023-02-28T05:56:04;12.45;;;7.10;;
15293;SDS011;7748;52.474;13.454;2023-02-28T05:58:32;13.23;;;7.85;;
15293;SDS011;7748;52.474;13.454;2023-02-28T06:01:18;11.25;;;8.15;;
15293;SDS011;7748;52.474;13.454;2023-02-28T06:03:49;13.10;;;6.50;;
15293;SDS011;7748;52.474;13.454;2023-02-28T06:06:17;13.07;;;8.20;;
15293;SDS011;7748;52.474;13.454;2023-02-28T06:08:45;12.20;;;7.30;;
15293;SDS011;7748;52.474;13.454;2023-02-28T06:11:13;13.98;;;7.63;;
15293;SDS011;7748;52.474;13.454;2023-02-28T06:13:41;10.23;;;7.22;;
15293;SDS011;7748;52.474;13.454;2023-02-28T06:16:10;12.70;;;7.30;;
15293;SDS011;7748;52.474;13.454;2023-02-28T06:18:40;13.90;;;7.97;;
15293;SDS011;7748;52.474;13.454;2023-02-28T06:21:08;13.93;;;7.53;;
15293;SDS011;7748;52.474;13.454;2023-02-28T06:23:36;11.32;;;8.05;;
15293;SDS011;7748;52.474;13.454;2023-02-28T06:26:04;13.48;;;8.13;;
15293;SDS011;7748;52.474;13.454;2023-02-28T06:28:32;13.43;;;7.45;;
15293;SDS011;7748;52.474;13.454;2023-02-28T06:31:05;13.02;;;7.90;;
15293;SDS011;7748;52.474;13.454;2023-02-28T06:33:34;9.52;;;6.55;;
15293;SDS011;7748;52.474;13.454;2023-02-28T06:36:03;10.50;;;6.20;;
15293;SDS011;7748;52.474;13.454;2023-02-28T06:38:32;15.75;;;7.32;;
15293;SDS011;7748;52.474;13.454;2023-02-28T06:41:01;11.20;;;6.90;;
15293;SDS011;7748;52.474;13.454;2023-02-28T06:43:31;12.45;;;7.28;;
15293;SDS011;7748;52.474;13.454;2023-02-28T06:46:01;14.77;;;7.35;;
15293;SDS011;7748;52.474;13.454;2023-02-28T06:48:31;18.60;;;10.20;;
15293;SDS011;7748;52.474;13.454;2023-02-28T06:51:01;9.25;;;5.82;;
15293;SDS011;7748;52.474;13.454;2023-02-28T06:53:32;16.73;;;8.18;;
15293;SDS011;7748;52.474;13.454;2023-02-28T06:56:03;13.95;;;6.63;;
15293;SDS011;7748;52.474;13.454;2023-02-28T06:58:32;12.25;;;6.85;;
15293;SDS011;7748;52.474;13.454;2023-02-28T07:01:01;11.25;;;7.25;;
15293;SDS011;7748;52.474;13.454;2023-02-28T07:03:30;15.25;;;5.93;;
15293;SDS011;7748;52.474;13.454;2023-02-28T07:05:59;14.27;;;7.30;;
15293;SDS011;7748;52.474;13.454;2023-02-28T07:08:29;16.30;;;7.82;;
15293;SDS011;7748;52.474;13.454;2023-02-28T07:10:58;14.07;;;6.38;;
15293;SDS011;7748;52.474;13.454;2023-02-28T07:13:26;13.57;;;8.07;;
15293;SDS011;7748;52.474;13.454;2023-02-28T07:15:54;15.85;;;7.20;;
15293;SDS011;7748;52.474;13.454;2023-02-28T07:18:22;11.43;;;7.20;;
15293;SDS011;7748;52.474;13.454;2023-02-28T07:20:51;10.18;;;6.53;;
15293;SDS011;7748;52.474;13.454;2023-02-28T07:23:20;10.77;;;6.93;;
15293;SDS011;7748;52.474;13.454;2023-02-28T07:25:50;10.43;;;6.88;;
15293;SDS011;7748;52.474;13.454;2023-02-28T07:28:19;11.90;;;7.38;;
15293;SDS011;7748;52.474;13.454;2023-02-28T07:30:46;8.73;;;5.93;;
15293;SDS011;7748;52.474;13.454;2023-02-28T07:33:15;11.93;;;6.50;;
15293;SDS011;7748;52.474;13.454;2023-02-28T07:35:43;10.20;;;6.40;;
15293;SDS011;7748;52.474;13.454;2023-02-28T07:38:11;9.88;;;6.35;;
15293;SDS011;7748;52.474;13.454;2023-02-28T07:40:40;13.27;;;6.57;;
15293;SDS011;7748;52.474;13.454;2023-02-28T07:43:09;13.88;;;6.32;;
15293;SDS011;7748;52.474;13.454;2023-02-28T07:45:37;12.35;;;5.55;;
15293;SDS011;7748;52.474;13.454;2023-02-28T07:48:04;13.65;;;5.72;;
15293;SDS011;7748;52.474;13.454;2023-02-28T07:50:33;10.10;;;5.63;;
15293;SDS011;7748;52.474;13.454;2023-02-28T07:53:01;12.00;;;6.25;;
15293;SDS011;7748;52.474;13.454;2023-02-28T07:55:29;12.27;;;5.97;;
15293;SDS011;7748;52.474;13.454;2023-02-28T07:57:56;20.30;;;5.90;;
15293;SDS011;7748;52.474;13.454;2023-02-28T08:00:26;14.67;;;5.80;;
15293;SDS011;7748;52.474;13.454;2023-02-28T08:02:55;8.37;;;5.10;;
15293;SDS011;7748;52.474;13.454;2023-02-28T08:05:22;7.63;;;4.97;;
15293;SDS011;7748;52.474;13.454;2023-02-28T08:07:50;10.20;;;5.57;;
15293;SDS011;7748;52.474;13.454;2023-02-28T08:10:19;11.55;;;5.20;;
15293;SDS011;7748;52.474;13.454;2023-02-28T08:12:47;7.90;;;4.20;;
15293;SDS011;7748;52.474;13.454;2023-02-28T08:15:15;9.53;;;3.90;;
15293;SDS011;7748;52.474;13.454;2023-02-28T08:17:44;5.70;;;4.00;;
15293;SDS011;7748;52.474;13.454;2023-02-28T08:20:12;16.53;;;5.23;;
15293;SDS011;7748;52.474;13.454;2023-02-28T08:22:40;9.13;;;4.40;;
15293;SDS011;7748;52.474;13.454;2023-02-28T08:25:11;29.47;;;6.33;;
15293;SDS011;7748;52.474;13.454;2023-02-28T08:27:39;23.03;;;6.40;;
15293;SDS011;7748;52.474;13.454;2023-02-28T08:30:07;16.77;;;6.20;;
15293;SDS011;7748;52.474;13.454;2023-02-28T08:32:37;11.83;;;4.30;;
15293;SDS011;7748;52.474;13.454;2023-02-28T08:35:08;7.33;;;4.40;;
15293;SDS011;7748;52.474;13.454;2023-02-28T08:37:36;9.10;;;5.33;;
15293;SDS011;7748;52.474;13.454;2023-02-28T08:40:04;10.57;;;4.83;;
15293;SDS011;7748;52.474;13.454;2023-02-28T08:42:33;6.90;;;4.20;;
15293;SDS011;7748;52.474;13.454;2023-02-28T08:45:02;21.10;;;4.70;;
15293;SDS011;7748;52.474;13.454;2023-02-28T08:47:31;6.93;;;4.23;;
15293;SDS011;7748;52.474;13.454;2023-02-28T08:49:59;8.07;;;4.13;;
15293;SDS011;7748;52.474;13.454;2023-02-28T08:52:28;12.13;;;4.47;;
15293;SDS011;7748;52.474;13.454;2023-02-28T08:54:56;8.57;;;4.30;;
15293;SDS011;7748;52.474;13.454;2023-02-28T08:57:24;18.37;;;5.47;;
15293;SDS011;7748;52.474;13.454;2023-02-28T08:59:53;23.83;;;5.60;;
15293;SDS011;7748;52.474;13.454;2023-02-28T09:02:21;7.10;;;4.43;;
15293;SDS011;7748;52.474;13.454;2023-02-28T09:04:52;22.23;;;4.87;;
15293;SDS011;7748;52.474;13.454;2023-02-28T09:07:21;9.60;;;4.13;;
15293;SDS011;7748;52.474;13.454;2023-02-28T09:09:51;14.00;;;5.70;;
15293;SDS011;7748;52.474;13.454;2023-02-28T09:12:23;12.03;;;4.03;;
15293;SDS011;7748;52.474;13.454;2023-02-28T09:14:52;7.03;;;3.47;;
15293;SDS011;7748;52.474;13.454;2023-02-28T09:17:21;9.27;;;4.20;;
15293;SDS011;7748;52.474;13.454;2023-02-28T09:19:56;8.00;;;3.80;;
15293;SDS011;7748;52.474;13.454;2023-02-28T09:22:24;11.13;;;3.80;;
15293;SDS011;7748;52.474;13.454;2023-02-28T09:24:53;6.30;;;2.80;;
15293;SDS011;7748;52.474;13.454;2023-02-28T09:27:21;3.83;;;2.23;;
15293;SDS011;7748;52.474;13.454;2023-02-28T09:29:49;6.47;;;2.50;;
15293;SDS011;7748;52.474;13.454;2023-02-28T09:32:17;12.67;;;3.20;;
15293;SDS011;7748;52.474;13.454;2023-02-28T09:34:45;4.50;;;2.50;;
15293;SDS011;7748;52.474;13.454;2023-02-28T09:37:13;9.07;;;2.67;;
15293;SDS011;7748;52.474;13.454;2023-02-28T09:39:41;5.70;;;2.70;;
15293;SDS011;7748;52.474;13.454;2023-02-28T09:42:12;6.43;;;3.83;;
15293;SDS011;7748;52.474;13.454;2023-02-28T09:44:48;11.77;;;3.10;;
15293;SDS011;7748;52.474;13.454;2023-02-28T09:47:21;5.70;;;2.70;;
15293;SDS011;7748;52.474;13.454;2023-02-28T09:49:54;16.00;;;3.03;;
15293;SDS011;7748;52.474;13.454;2023-02-28T09:52:26;14.03;;;2.90;;
15293;SDS011;7748;52.474;13.454;2023-02-28T09:54:58;5.60;;;2.30;;
15293;SDS011;7748;52.474;13.454;2023-02-28T09:57:32;12.17;;;2.40;;
15293;SDS011;7748;52.474;13.454;2023-02-28T10:00:10;8.47;;;3.00;;
15293;SDS011;7748;52.474;13.454;2023-02-28T10:02:47;15.20;;;3.80;;
15293;SDS011;7748;52.474;13.454;2023-02-28T10:05:27;12.23;;;4.37;;
15293;SDS011;7748;52.474;13.454;2023-02-28T10:08:03;8.83;;;3.77;;
15293;SDS011;7748;52.474;13.454;2023-02-28T10:10:39;10.50;;;3.50;;
15293;SDS011;7748;52.474;13.454;2023-02-28T10:13:14;10.80;;;3.20;;
15293;SDS011;7748;52.474;13.454;2023-02-28T10:15:48;8.57;;;2.50;;
15293;SDS011;7748;52.474;13.454;2023-02-28T10:18:20;4.37;;;2.33;;
15293;SDS011;7748;52.474;13.454;2023-02-28T10:20:52;5.17;;;1.90;;
15293;SDS011;7748;52.474;13.454;2023-02-28T10:23:23;3.63;;;2.90;;
15293;SDS011;7748;52.474;13.454;2023-02-28T10:25:55;4.43;;;2.60;;
15293;SDS011;7748;52.474;13.454;2023-02-28T10:28:29;2.43;;;1.67;;
15293;SDS011;7748;52.474;13.454;2023-02-28T10:30:58;2.90;;;2.13;;
15293;SDS011;7748;52.474;13.454;2023-02-28T10:33:28;1.80;;;1.70;;
15293;SDS011;7748;52.474;13.454;2023-02-28T10:35:58;5.27;;;2.20;;
15293;SDS011;7748;52.474;13.454;2023-02-28T10:38:27;4.00;;;2.60;;
15293;SDS011;7748;52.474;13.454;2023-02-28T10:41:03;5.53;;;2.87;;
15293;SDS011;7748;52.474;13.454;2023-02-28T10:43:34;2.77;;;2.13;;
15293;SDS011;7748;52.474;13.454;2023-02-28T10:46:04;4.57;;;2.40;;
15293;SDS011;7748;52.474;13.454;2023-02-28T10:48:42;3.30;;;2.30;;
15293;SDS011;7748;52.474;13.454;2023-02-28T10:51:14;3.63;;;2.30;;
15293;SDS011;7748;52.474;13.454;2023-02-28T10:53:47;3.60;;;2.27;;
15293;SDS011;7748;52.474;13.454;2023-02-28T10:56:27;4.37;;;2.60;;
15293;SDS011;7748;52.474;13.454;2023-02-28T10:58:59;5.87;;;3.30;;
15293;SDS011;7748;52.474;13.454;2023-02-28T11:01:36;7.67;;;3.57;;
15293;SDS011;7748;52.474;13.454;2023-02-28T11:07:02;3.93;;;2.47;;
15293;SDS011;7748;52.474;13.454;2023-02-28T11:09:33;8.97;;;3.30;;
15293;SDS011;7748;52.474;13.454;2023-02-28T11:12:03;10.90;;;2.60;;
15293;SDS011;7748;52.474;13.454;2023-02-28T11:14:36;6.30;;;3.50;;
15293;SDS011;7748;52.474;13.454;2023-02-28T11:17:18;12.53;;;3.50;;
15293;SDS011;7748;52.474;13.454;2023-02-28T11:19:49;3.67;;;3.03;;
15293;SDS011;7748;52.474;13.454;2023-02-28T11:22:20;8.30;;;3.20;;
15293;SDS011;7748;52.474;13.454;2023-02-28T11:24:55;4.20;;;2.77;;
15293;SDS011;7748;52.474;13.454;2023-02-28T11:27:45;5.90;;;3.50;;
15293;SDS011;7748;52.474;13.454;2023-02-28T11:30:34;4.93;;;2.80;;
15293;SDS011;7748;52.474;13.454;2023-02-28T11:33:23;3.83;;;2.57;;
15293;SDS011;7748;52.474;13.454;2023-02-28T11:35:55;6.30;;;3.20;;
15293;SDS011;7748;52.474;13.454;2023-02-28T11:38:31;4.43;;;2.80;;
15293;SDS011;7748;52.474;13.454;2023-02-28T11:41:05;7.70;;;4.17;;
15293;SDS011;7748;52.474;13.454;2023-02-28T11:44:11;15.67;;;4.17;;
15293;SDS011;7748;52.474;13.454;2023-02-28T11:46:51;14.97;;;3.87;;
15293;SDS011;7748;52.474;13.454;2023-02-28T11:49:27;7.20;;;3.47;;
15293;SDS011;7748;52.474;13.454;2023-02-28T11:52:03;7.73;;;3.87;;
15293;SDS011;7748;52.474;13.454;2023-02-28T11:54:52;6.43;;;3.63;;
15293;SDS011;7748;52.474;13.454;2023-02-28T11:57:49;5.20;;;2.93;;
15293;SDS011;7748;52.474;13.454;2023-02-28T12:00:33;14.10;;;4.50;;
15293;SDS011;7748;52.474;13.454;2023-02-28T12:03:18;7.00;;;3.23;;
15293;SDS011;7748;52.474;13.454;2023-02-28T12:05:57;4.00;;;3.03;;
15293;SDS011;7748;52.474;13.454;2023-02-28T12:08:43;5.97;;;3.67;;
15293;SDS011;7748;52.474;13.454;2023-02-28T12:11:19;20.57;;;5.07;;
15293;SDS011;7748;52.474;13.454;2023-02-28T12:14:01;4.77;;;2.87;;
15293;SDS011;7748;52.474;13.454;2023-02-28T12:16:48;4.40;;;3.13;;
15293;SDS011;7748;52.474;13.454;2023-02-28T12:19:27;7.67;;;3.10;;
15293;SDS011;7748;52.474;13.454;2023-02-28T12:22:16;4.33;;;3.10;;
15293;SDS011;7748;52.474;13.454;2023-02-28T12:24:59;4.73;;;2.90;;
15293;SDS011;7748;52.474;13.454;2023-02-28T12:27:48;6.30;;;3.70;;
15293;SDS011;7748;52.474;13.454;2023-02-28T12:30:20;3.90;;;2.77;;
15293;SDS011;7748;52.474;13.454;2023-02-28T12:32:52;8.93;;;3.20;;
15293;SDS011;7748;52.474;13.454;2023-02-28T12:35:26;6.17;;;3.87;;
15293;SDS011;7748;52.474;13.454;2023-02-28T12:38:02;5.97;;;3.03;;
15293;SDS011;7748;52.474;13.454;2023-02-28T12:40:38;5.60;;;2.70;;
15293;SDS011;7748;52.474;13.454;2023-02-28T12:43:12;10.00;;;3.17;;
15293;SDS011;7748;52.474;13.454;2023-02-28T12:45:43;5.13;;;3.00;;
15293;SDS011;7748;52.474;13.454;2023-02-28T12:48:15;2.33;;;2.13;;
15293;SDS011;7748;52.474;13.454;2023-02-28T12:50:50;7.80;;;2.93;;
15293;SDS011;7748;52.474;13.454;2023-02-28T12:53:21;5.13;;;2.53;;
15293;SDS011;7748;52.474;13.454;2023-02-28T12:55:57;3.63;;;2.50;;
15293;SDS011;7748;52.474;13.454;2023-02-28T12:58:35;4.40;;;3.27;;
15293;SDS011;7748;52.474;13.454;2023-02-28T13:01:14;4.30;;;2.57;;
15293;SDS011;7748;52.474;13.454;2023-02-28T13:07:12;6.17;;;3.80;;
15293;SDS011;7748;52.474;13.454;2023-02-28T13:10:04;8.67;;;4.13;;
15293;SDS011;7748;52.474;13.454;2023-02-28T13:12:34;6.93;;;2.83;;
15293;SDS011;7748;52.474;13.454;2023-02-28T13:15:04;6.50;;;3.73;;
15293;SDS011;7748;52.474;13.454;2023-02-28T13:17:38;3.93;;;3.30;;
15293;SDS011;7748;52.474;13.454;2023-02-28T13:20:14;4.33;;;2.93;;
15293;SDS011;7748;52.474;13.454;2023-02-28T13:22:46;9.80;;;4.97;;
15293;SDS011;7748;52.474;13.454;2023-02-28T13:38:24;6.60;;;3.23;;
15293;SDS011;7748;52.474;13.454;2023-02-28T13:44:06;6.77;;;3.00;;
15293;SDS011;7748;52.474;13.454;2023-02-28T13:46:36;6.73;;;3.63;;
15293;SDS011;7748;52.474;13.454;2023-02-28T13:49:27;8.67;;;3.70;;
15293;SDS011;7748;52.474;13.454;2023-02-28T13:52:02;5.80;;;2.90;;
15293;SDS011;7748;52.474;13.454;2023-02-28T13:54:48;5.97;;;3.57;;
15293;SDS011;7748;52.474;13.454;2023-02-28T13:57:27;9.40;;;3.10;;
15293;SDS011;7748;52.474;13.454;2023-02-28T14:00:15;8.67;;;4.63;;
15293;SDS011;7748;52.474;13.454;2023-02-28T14:03:01;10.07;;;5.00;;
15293;SDS011;7748;52.474;13.454;2023-02-28T14:08:37;7.13;;;4.17;;
15293;SDS011;7748;52.474;13.454;2023-02-28T14:11:31;9.23;;;5.20;;
15293;SDS011;7748;52.474;13.454;2023-02-28T14:14:01;5.43;;;2.80;;
15293;SDS011;7748;52.474;13.454;2023-02-28T14:16:38;5.03;;;3.87;;
15293;SDS011;7748;52.474;13.454;2023-02-28T14:19:10;5.43;;;3.13;;
15293;SDS011;7748;52.474;13.454;2023-02-28T14:21:45;3.77;;;2.60;;
15293;SDS011;7748;52.474;13.454;2023-02-28T14:24:29;9.60;;;3.23;;
15293;SDS011;7748;52.474;13.454;2023-02-28T14:27:26;12.47;;;7.23;;
15293;SDS011;7748;52.474;13.454;2023-02-28T14:36:06;4.10;;;3.30;;
15293;SDS011;7748;52.474;13.454;2023-02-28T14:38:43;9.07;;;5.03;;
15293;SDS011;7748;52.474;13.454;2023-02-28T14:41:16;6.73;;;4.13;;
15293;SDS011;7748;52.474;13.454;2023-02-28T14:43:49;8.70;;;3.63;;
15293;SDS011;7748;52.474;13.454;2023-02-28T14:46:19;7.83;;;3.20;;
15293;SDS011;7748;52.474;13.454;2023-02-28T14:48:47;4.33;;;3.00;;
15293;SDS011;7748;52.474;13.454;2023-02-28T14:51:18;6.83;;;3.47;;
15293;SDS011;7748;52.474;13.454;2023-02-28T14:53:49;7.90;;;3.57;;
15293;SDS011;7748;52.474;13.454;2023-02-28T14:56:22;8.47;;;3.60;;
15293;SDS011;7748;52.474;13.454;2023-02-28T14:58:53;4.07;;;3.17;;
15293;SDS011;7748;52.474;13.454;2023-02-28T15:01:23;3.70;;;3.33;;
15293;SDS011;7748;52.474;13.454;2023-02-28T15:03:56;8.00;;;3.50;;
15293;SDS011;7748;52.474;13.454;2023-02-28T15:06:27;6.07;;;3.63;;
15293;SDS011;7748;52.474;13.454;2023-02-28T15:09:14;5.53;;;2.90;;
15293;SDS011;7748;52.474;13.454;2023-02-28T15:11:45;5.73;;;3.40;;
15293;SDS011;7748;52.474;13.454;2023-02-28T15:14:18;5.13;;;2.90;;
15293;SDS011;7748;52.474;13.454;2023-02-28T15:16:49;10.83;;;3.37;;
15293;SDS011;7748;52.474;13.454;2023-02-28T15:19:25;5.70;;;3.23;;
15293;SDS011;7748;52.474;13.454;2023-02-28T15:21:58;6.83;;;3.03;;
15293;SDS011;7748;52.474;13.454;2023-02-28T15:24:31;11.60;;;6.83;;
15293;SDS011;7748;52.474;13.454;2023-02-28T15:27:05;6.23;;;4.00;;
15293;SDS011;7748;52.474;13.454;2023-02-28T15:29:41;4.33;;;3.57;;
15293;SDS011;7748;52.474;13.454;2023-02-28T15:32:20;11.57;;;5.73;;
15293;SDS011;7748;52.474;13.454;2023-02-28T15:34:52;7.10;;;4.40;;
15293;SDS011;7748;52.474;13.454;2023-02-28T15:37:28;4.90;;;3.83;;
15293;SDS011;7748;52.474;13.454;2023-02-28T15:40:05;8.47;;;3.17;;
15293;SDS011;7748;52.474;13.454;2023-02-28T15:42:38;4.23;;;3.00;;
15293;SDS011;7748;52.474;13.454;2023-02-28T15:48:01;4.37;;;2.83;;
15293;SDS011;7748;52.474;13.454;2023-02-28T15:50:39;9.07;;;3.60;;
15293;SDS011;7748;52.474;13.454;2023-02-28T15:53:11;6.30;;;3.10;;
15293;SDS011;7748;52.474;13.454;2023-02-28T15:55:40;5.00;;;3.40;;
15293;SDS011;7748;52.474;13.454;2023-02-28T15:58:09;16.87;;;5.13;;
15293;SDS011;7748;52.474;13.454;2023-02-28T16:00:43;6.13;;;3.73;;
15293;SDS011;7748;52.474;13.454;2023-02-28T16:03:26;11.57;;;6.33;;